Terminal Aerodrome Forecast
Issued by NWS

Home | Current Version | Previous Version | Text Only | Print | Product List | Glossary On
Versions: 1 2 3 4 5 6 7 8 9 10 11 12 13 14 15 16 17 18 19
000
FTUS42 KGSP 140500
TAFGMU
TAF
KGMU 140540Z 1406/1506 23005KT P6SM SCT100
     FM141600 24012KT P6SM SCT050 PROB30 1421/1424 4SM TSRA BKN040CB
     FM150000 23005KT P6SM VCSH BKN050=

USA.gov is the U.S. government's official web portal to all federal, state and local government web resources and services.